createdAt,value
2017-04-10T00:00:03.929Z,1013.55
2017-04-10T00:00:44.409Z,1013.52
2017-04-10T00:01:24.908Z,1013.5
2017-04-10T00:02:05.389Z,1013.55
2017-04-10T00:02:45.858Z,1013.48
2017-04-10T00:03:26.334Z,1013.5
2017-04-10T00:04:06.825Z,1013.48
2017-04-10T00:04:47.293Z,1013.48
2017-04-10T00:05:27.804Z,1013.44
2017-04-10T00:06:08.297Z,1013.43
2017-04-10T00:06:48.776Z,1013.43
2017-04-10T00:07:29.239Z,1013.41
2017-04-10T00:08:09.716Z,1013.41
2017-04-10T00:08:50.182Z,1013.36
2017-04-10T00:09:30.703Z,1013.37
2017-04-10T00:10:11.185Z,1013.33
2017-04-10T00:10:51.679Z,1013.31
2017-04-10T00:11:32.135Z,1013.32
2017-04-10T00:12:12.651Z,1013.29
2017-04-10T00:12:53.111Z,1013.24
2017-04-10T00:13:33.590Z,1013.2
2017-04-10T00:14:14.053Z,1013.18
2017-04-10T00:14:54.548Z,1013.12
2017-04-10T00:15:35.047Z,1013.17
2017-04-10T00:16:15.508Z,1013.13
2017-04-10T00:16:55.999Z,1013.09
2017-04-10T00:17:36.486Z,1013.06
2017-04-10T00:18:16.993Z,1013.07
2017-04-10T00:18:57.484Z,1013.09
2017-04-10T00:19:37.927Z,1013.03
2017-04-10T00:20:18.432Z,1013.06
2017-04-10T00:20:58.990Z,1013.04
2017-04-10T00:21:39.478Z,1013.02
2017-04-10T00:22:19.932Z,1013.04
2017-04-10T00:23:00.424Z,1013
2017-04-10T00:23:40.909Z,1012.92
2017-04-10T00:24:21.402Z,1012.88
2017-04-10T00:25:01.887Z,1012.93
2017-04-10T00:25:42.353Z,1012.92
2017-04-10T00:26:22.844Z,1012.85
2017-04-10T00:27:03.310Z,1012.86
2017-04-10T00:27:43.847Z,1012.85
2017-04-10T00:28:24.342Z,1012.81
2017-04-10T00:29:04.813Z,1012.78
2017-04-10T00:29:45.269Z,1012.82
2017-04-10T00:30:25.801Z,1012.84
2017-04-10T00:31:06.259Z,1012.83
2017-04-10T00:31:46.734Z,1012.76
2017-04-10T00:32:27.203Z,1012.79
2017-04-10T00:33:07.692Z,1012.77
2017-04-10T00:33:48.181Z,1012.79
2017-04-10T00:34:28.648Z,1012.75
2017-04-10T00:35:09.138Z,1012.67
2017-04-10T00:35:49.618Z,1012.66
2017-04-10T00:36:30.108Z,1012.68
2017-04-10T00:37:10.564Z,1012.64
2017-04-10T00:37:51.058Z,1012.6
2017-04-10T00:38:31.563Z,1012.61
2017-04-10T00:39:12.020Z,1012.59
2017-04-10T00:39:52.520Z,1012.58
2017-04-10T00:40:32.984Z,1012.56
2017-04-10T00:41:13.505Z,1012.53
2017-04-10T00:41:53.898Z,1012.49
2017-04-10T00:42:34.395Z,1012.52
2017-04-10T00:43:14.870Z,1012.49
2017-04-10T00:43:55.324Z,1012.49
2017-04-10T00:44:35.846Z,1012.45
2017-04-10T00:45:16.312Z,1012.48
2017-04-10T00:45:56.792Z,1012.46
2017-04-10T00:46:37.249Z,1012.49
2017-04-10T00:47:17.744Z,1012.45
2017-04-10T00:47:58.229Z,1012.41
2017-04-10T00:48:38.712Z,1012.4
2017-04-10T00:49:19.234Z,1012.4
2017-04-10T00:49:59.713Z,1012.39
2017-04-10T00:50:40.171Z,1012.38
2017-04-10T00:51:20.728Z,1012.41
2017-04-10T00:52:01.213Z,1012.38
2017-04-10T00:52:41.691Z,1012.37
2017-04-10T00:53:22.193Z,1012.42
2017-04-10T00:54:02.633Z,1012.36
2017-04-10T00:54:43.120Z,1012.35
2017-04-10T00:55:23.568Z,1012.36
2017-04-10T00:56:04.051Z,1012.29
2017-04-10T00:56:44.557Z,1012.29
2017-04-10T00:57:25.044Z,1012.26
2017-04-10T00:58:05.516Z,1012.23
2017-04-10T00:58:46.007Z,1012.23
2017-04-10T00:59:26.500Z,1012.21
2017-04-10T01:00:06.975Z,1012.21
2017-04-10T01:00:47.503Z,1012.22
2017-04-10T01:01:27.973Z,1012.16
2017-04-10T01:02:08.477Z,1012.14
2017-04-10T01:02:48.997Z,1012.16
2017-04-10T01:03:29.473Z,1012.12
2017-04-10T01:04:09.958Z,1012.12
2017-04-10T01:04:50.448Z,1012.08
2017-04-10T01:05:30.935Z,1012.02
2017-04-10T01:06:11.415Z,1011.96
2017-04-10T01:06:51.901Z,1012.01
2017-04-10T01:07:32.393Z,1011.95
2017-04-10T01:08:12.846Z,1011.87
2017-04-10T01:08:53.350Z,1011.79
2017-04-10T01:09:33.847Z,1011.77
2017-04-10T01:10:14.322Z,1011.78
2017-04-10T01:10:54.811Z,1011.72
2017-04-10T01:11:35.276Z,1011.78
2017-04-10T01:12:15.764Z,1011.81
2017-04-10T01:12:56.268Z,1011.81
2017-04-10T01:13:36.747Z,1011.79
2017-04-10T01:14:17.209Z,1011.84
2017-04-10T01:14:57.708Z,1011.78
2017-04-10T01:15:38.199Z,1011.82
2017-04-10T01:16:18.681Z,1011.83
2017-04-10T01:16:59.176Z,1011.8
2017-04-10T01:17:39.638Z,1011.8
2017-04-10T01:18:20.128Z,1011.76
2017-04-10T01:19:00.622Z,1011.8
2017-04-10T01:19:41.098Z,1011.84
2017-04-10T01:20:21.595Z,1011.77
2017-04-10T01:21:02.055Z,1011.78
2017-04-10T01:21:42.536Z,1011.69
2017-04-10T01:22:23.038Z,1011.73
2017-04-10T01:23:03.504Z,1011.67
2017-04-10T01:23:43.968Z,1011.58
2017-04-10T01:24:24.438Z,1011.59
2017-04-10T01:25:04.914Z,1011.62
2017-04-10T01:25:45.441Z,1011.63
2017-04-10T01:26:25.880Z,1011.64
2017-04-10T01:27:06.359Z,1011.63
2017-04-10T01:27:46.836Z,1011.67
2017-04-10T01:28:27.317Z,1011.61
2017-04-10T01:29:07.798Z,1011.59
2017-04-10T01:29:48.268Z,1011.59
2017-04-10T01:30:28.792Z,1011.55
2017-04-10T01:31:09.288Z,1011.54
2017-04-10T01:31:49.769Z,1011.57
2017-04-10T01:32:30.265Z,1011.53
2017-04-10T01:33:10.726Z,1011.48
2017-04-10T01:33:51.218Z,1011.49
2017-04-10T01:34:31.695Z,1011.51
2017-04-10T01:35:12.166Z,1011.49
2017-04-10T01:35:52.647Z,1011.48
2017-04-10T01:36:33.125Z,1011.5
2017-04-10T01:37:13.659Z,1011.45
2017-04-10T01:37:54.117Z,1011.43
2017-04-10T01:38:34.601Z,1011.44
2017-04-10T01:39:15.082Z,1011.37
2017-04-10T01:39:55.569Z,1011.37
2017-04-10T01:40:36.051Z,1011.33
2017-04-10T01:41:16.536Z,1011.37
2017-04-10T01:41:57.012Z,1011.37
2017-04-10T01:42:37.505Z,1011.37
2017-04-10T01:43:17.996Z,1011.28
2017-04-10T01:43:58.466Z,1011.29
2017-04-10T01:44:38.933Z,1011.28
2017-04-10T01:45:19.410Z,1011.25
2017-04-10T01:45:59.889Z,1011.22
2017-04-10T01:46:40.446Z,1011.18
2017-04-10T01:47:20.912Z,1011.24
2017-04-10T01:48:01.380Z,1011.25
2017-04-10T01:48:41.865Z,1011.21
2017-04-10T01:49:22.337Z,1011.22
2017-04-10T01:50:02.862Z,1011.15
2017-04-10T01:50:43.333Z,1011.18
2017-04-10T01:51:23.799Z,1011.21
2017-04-10T01:52:04.262Z,1011.08
2017-04-10T01:52:44.759Z,1011.09
2017-04-10T01:53:25.230Z,1011.09
2017-04-10T01:54:05.726Z,1011.09
2017-04-10T01:54:46.208Z,1011.08
2017-04-10T01:55:26.678Z,1011.04
2017-04-10T01:56:07.169Z,1011.06
2017-04-10T01:56:47.675Z,1010.97
2017-04-10T01:57:28.138Z,1011.01
2017-04-10T01:58:08.651Z,1011.06
2017-04-10T01:58:49.090Z,1010.93
2017-04-10T01:59:29.589Z,1010.96
2017-04-10T02:00:10.052Z,1011.03
2017-04-10T02:00:50.545Z,1011.08
2017-04-10T02:01:31.014Z,1011
2017-04-10T02:02:11.506Z,1011.07
2017-04-10T02:02:52.001Z,1011.14
2017-04-10T02:03:32.499Z,1011.27
2017-04-10T02:04:12.993Z,1011.26
2017-04-10T02:04:53.461Z,1011.24
2017-04-10T02:05:33.930Z,1011.16
2017-04-10T02:06:14.427Z,1011.19
2017-04-10T02:06:54.907Z,1011.21
2017-04-10T02:07:35.383Z,1011.16
2017-04-10T02:08:15.859Z,1011.29
2017-04-10T02:10:30.125Z,1011.03
2017-04-10T02:11:10.573Z,1011.05
2017-04-10T02:11:51.137Z,1011.09
2017-04-10T02:12:31.612Z,1011.06
2017-04-10T02:13:12.102Z,1010.98
2017-04-10T02:13:52.578Z,1010.95
2017-04-10T02:14:33.046Z,1010.99
2017-04-10T02:15:13.517Z,1011.04
2017-04-10T02:15:54.000Z,1011.06
2017-04-10T02:16:34.485Z,1011.09
2017-04-10T02:17:14.964Z,1011.1
2017-04-10T02:17:55.448Z,1011.21
2017-04-10T02:18:35.907Z,1011.05
2017-04-10T02:19:16.421Z,1011.15
2017-04-10T02:19:56.893Z,1011.07
2017-04-10T02:20:37.349Z,1011.21
2017-04-10T02:21:17.837Z,1011.08
2017-04-10T02:21:58.312Z,1011.14
2017-04-10T02:22:38.819Z,1011.3
2017-04-10T02:23:19.332Z,1011.15
2017-04-10T02:23:59.776Z,1011.04
2017-04-10T02:24:40.274Z,1011.24
2017-04-10T02:25:20.817Z,1011.15
2017-04-10T02:26:01.327Z,1011.08
2017-04-10T02:26:41.797Z,1011.1
2017-04-10T02:27:22.277Z,1011
2017-04-10T02:28:02.775Z,1011.12
2017-04-10T02:28:43.265Z,1011.13
2017-04-10T02:29:23.739Z,1011.12
2017-04-10T02:30:04.232Z,1011.13
2017-04-10T02:30:44.745Z,1011.17
2017-04-10T02:31:25.193Z,1011.18
2017-04-10T02:32:05.696Z,1011.18
2017-04-10T02:32:46.176Z,1011.21
2017-04-10T02:33:26.656Z,1011.09
2017-04-10T02:34:07.153Z,1011.09
2017-04-10T02:34:47.605Z,1011.09
2017-04-10T02:35:28.108Z,1011.11
2017-04-10T02:36:08.596Z,1011.14
2017-04-10T02:36:49.132Z,1011.18
2017-04-10T02:37:29.603Z,1011.24
2017-04-10T02:38:10.041Z,1011.15
2017-04-10T02:38:50.526Z,1011.13
2017-04-10T02:39:31.041Z,1011.11
2017-04-10T02:40:11.488Z,1011.13
2017-04-10T02:40:51.994Z,1011.21
2017-04-10T02:41:32.449Z,1011.22
2017-04-10T02:42:12.951Z,1011.15
2017-04-10T02:42:53.428Z,1011.32
2017-04-10T02:43:33.923Z,1011.04
2017-04-10T02:44:14.393Z,1011.1
2017-04-10T02:44:54.897Z,1011.26
2017-04-10T02:45:35.385Z,1011.02
2017-04-10T02:46:15.869Z,1011.09
2017-04-10T02:46:56.348Z,1011.1
2017-04-10T02:47:36.833Z,1011.11
2017-04-10T02:48:17.313Z,1011.26
2017-04-10T02:48:57.802Z,1011.18
2017-04-10T02:49:38.291Z,1011.22
2017-04-10T02:50:18.754Z,1011.19
2017-04-10T02:50:59.248Z,1011.18
2017-04-10T02:51:39.729Z,1011.29
2017-04-10T02:52:20.216Z,1011.23
2017-04-10T02:53:00.689Z,1011.19
2017-04-10T02:53:41.162Z,1011.19
2017-04-10T02:54:21.622Z,1011.14
2017-04-10T02:55:02.083Z,1011.1
2017-04-10T02:55:42.552Z,1011.37
2017-04-10T02:56:23.039Z,1011.23
2017-04-10T02:57:03.533Z,1011.14
2017-04-10T02:57:44.043Z,1011.15
2017-04-10T02:58:24.514Z,1011.09
2017-04-10T02:59:05.005Z,1011.03
2017-04-10T02:59:45.486Z,1011.06
2017-04-10T03:00:25.960Z,1011.13
2017-04-10T03:01:06.477Z,1011.04
2017-04-10T03:01:46.968Z,1011.15
2017-04-10T03:02:27.442Z,1011.13
2017-04-10T03:03:07.942Z,1011.03
2017-04-10T03:03:48.393Z,1011.07
2017-04-10T03:04:28.861Z,1011.04
2017-04-10T03:05:09.342Z,1010.99
2017-04-10T03:05:49.827Z,1011.05
2017-04-10T03:06:30.295Z,1011.03
2017-04-10T03:07:10.776Z,1011.01
2017-04-10T03:07:51.304Z,1011.02
2017-04-10T03:08:31.757Z,1011.06
2017-04-10T03:09:12.234Z,1010.89
2017-04-10T03:09:52.730Z,1010.97
2017-04-10T03:10:33.210Z,1011.11
2017-04-10T03:11:13.715Z,1011.06
2017-04-10T03:11:54.186Z,1010.98
2017-04-10T03:12:34.676Z,1011.07
2017-04-10T03:13:15.151Z,1011.05
2017-04-10T03:13:55.626Z,1010.94
2017-04-10T03:14:36.101Z,1010.99
2017-04-10T03:15:16.584Z,1010.98
2017-04-10T03:15:57.049Z,1010.97
2017-04-10T03:16:37.551Z,1010.92
2017-04-10T03:17:18.008Z,1011.08
2017-04-10T03:17:58.472Z,1010.97
2017-04-10T03:18:38.968Z,1010.98
2017-04-10T03:19:19.447Z,1010.91
2017-04-10T03:19:59.938Z,1010.99
2017-04-10T03:20:40.426Z,1011.03
2017-04-10T03:21:20.927Z,1010.93
2017-04-10T03:22:01.392Z,1010.89
2017-04-10T03:22:41.902Z,1010.96
2017-04-10T03:23:22.347Z,1010.92
2017-04-10T03:24:02.821Z,1010.92
2017-04-10T03:24:43.299Z,1010.96
2017-04-10T03:25:23.792Z,1010.99
2017-04-10T03:26:04.266Z,1011
2017-04-10T03:26:44.753Z,1010.9
2017-04-10T03:27:25.241Z,1010.95
2017-04-10T03:28:05.712Z,1010.91
2017-04-10T03:28:46.202Z,1010.92
2017-04-10T03:29:26.685Z,1010.98
2017-04-10T03:30:07.169Z,1010.87
2017-04-10T03:30:47.638Z,1010.85
2017-04-10T03:31:28.126Z,1010.86
2017-04-10T03:32:08.605Z,1010.95
2017-04-10T03:32:49.095Z,1010.94
2017-04-10T03:33:29.546Z,1010.97
2017-04-10T03:34:10.068Z,1010.97
2017-04-10T03:34:50.543Z,1010.95
2017-04-10T03:35:31.075Z,1010.96
2017-04-10T03:36:11.529Z,1010.97
2017-04-10T03:36:51.987Z,1010.99
2017-04-10T03:37:32.474Z,1011
2017-04-10T03:38:12.925Z,1010.96
2017-04-10T03:38:53.411Z,1010.89
2017-04-10T03:39:33.852Z,1010.92
2017-04-10T03:40:14.339Z,1010.93
2017-04-10T03:40:54.835Z,1010.98
2017-04-10T03:41:35.307Z,1010.98
2017-04-10T03:42:15.792Z,1010.98
2017-04-10T03:42:56.293Z,1011
2017-04-10T03:43:36.758Z,1010.95
2017-04-10T03:44:17.252Z,1010.91
2017-04-10T03:44:57.723Z,1010.96
2017-04-10T03:45:38.190Z,1010.9
2017-04-10T03:46:18.685Z,1010.91
2017-04-10T03:46:59.146Z,1010.95
2017-04-10T03:47:39.631Z,1010.93
2017-04-10T03:48:20.101Z,1010.96
2017-04-10T03:49:00.573Z,1011.04
2017-04-10T03:49:41.067Z,1011.01
2017-04-10T03:50:21.570Z,1011.05
2017-04-10T03:51:02.066Z,1011.09
2017-04-10T03:51:42.530Z,1011.09
2017-04-10T03:52:23.007Z,1011.04
2017-04-10T03:53:03.510Z,1011.06
2017-04-10T03:53:44.046Z,1011.12
2017-04-10T03:54:24.492Z,1011.16
2017-04-10T03:55:04.991Z,1011.14
2017-04-10T03:55:45.478Z,1011.16
2017-04-10T03:56:25.958Z,1011.13
2017-04-10T03:57:06.449Z,1011.15
2017-04-10T03:57:46.959Z,1011.16
2017-04-10T03:58:27.468Z,1011.21
2017-04-10T03:59:07.963Z,1011.09
2017-04-10T03:59:48.429Z,1011.09
2017-04-10T04:00:28.909Z,1011.19
2017-04-10T04:01:09.378Z,1011.12
2017-04-10T04:01:49.867Z,1011.14
2017-04-10T04:02:30.378Z,1011.24
2017-04-10T04:03:10.845Z,1011.11
2017-04-10T04:03:51.312Z,1011.1
2017-04-10T04:04:31.796Z,1011.12
2017-04-10T04:05:12.300Z,1011.19
2017-04-10T04:05:52.757Z,1011.05
2017-04-10T04:06:33.227Z,1011.07
2017-04-10T04:07:13.703Z,1011.03
2017-04-10T04:07:54.194Z,1011.05
2017-04-10T04:08:34.643Z,1011.09
2017-04-10T04:09:15.133Z,1011.11
2017-04-10T04:09:55.606Z,1011.1
2017-04-10T04:10:36.093Z,1011.1
2017-04-10T04:11:16.553Z,1011.13
2017-04-10T04:11:57.045Z,1011.18
2017-04-10T04:12:37.519Z,1011.09
2017-04-10T04:13:18.018Z,1011.09
2017-04-10T04:13:58.514Z,1011.09
2017-04-10T04:14:39.011Z,1011.1
2017-04-10T04:15:19.475Z,1011.2
2017-04-10T04:15:59.946Z,1011.11
2017-04-10T04:16:40.441Z,1011.08
2017-04-10T04:17:20.976Z,1011.1
2017-04-10T04:18:01.407Z,1011.1
2017-04-10T04:18:41.912Z,1011.07
2017-04-10T04:19:22.372Z,1011.15
2017-04-10T04:20:02.850Z,1011.12
2017-04-10T04:20:43.325Z,1011.09
2017-04-10T04:21:23.828Z,1011.08
2017-04-10T04:22:04.284Z,1011.09
2017-04-10T04:22:44.758Z,1011.04
2017-04-10T04:23:25.230Z,1011.12
2017-04-10T04:24:05.724Z,1011.07
2017-04-10T04:24:46.205Z,1011.07
2017-04-10T04:25:26.709Z,1011.13
2017-04-10T04:26:07.184Z,1011.13
2017-04-10T04:26:47.651Z,1011.17
2017-04-10T04:27:28.149Z,1011.22
2017-04-10T04:28:08.640Z,1011.3
2017-04-10T04:28:49.149Z,1011.28
2017-04-10T04:29:29.630Z,1011.23
2017-04-10T04:30:10.100Z,1011.28
2017-04-10T04:30:50.589Z,1011.32
2017-04-10T04:31:31.121Z,1011.31
2017-04-10T04:32:11.614Z,1011.25
2017-04-10T04:32:52.110Z,1011.36
2017-04-10T04:33:32.563Z,1011.33
2017-04-10T04:34:13.046Z,1011.34
2017-04-10T04:34:53.515Z,1011.33
2017-04-10T04:35:33.984Z,1011.33
2017-04-10T04:36:14.479Z,1011.38
2017-04-10T04:36:54.977Z,1011.43
2017-04-10T04:37:35.467Z,1011.46
2017-04-10T04:38:15.978Z,1011.47
2017-04-10T04:38:56.442Z,1011.44
2017-04-10T04:39:36.922Z,1011.43
2017-04-10T04:40:17.419Z,1011.44
2017-04-10T04:40:57.902Z,1011.51
2017-04-10T04:41:38.371Z,1011.49
2017-04-10T04:42:18.869Z,1011.46
2017-04-10T04:42:59.322Z,1011.57
2017-04-10T04:43:39.819Z,1011.63
2017-04-10T04:44:20.274Z,1011.63
2017-04-10T04:45:00.750Z,1011.67
2017-04-10T04:45:41.217Z,1011.64
2017-04-10T04:46:21.711Z,1011.75
2017-04-10T04:47:02.154Z,1011.65
2017-04-10T04:47:42.637Z,1011.6
2017-04-10T04:48:23.100Z,1011.7
2017-04-10T04:49:03.626Z,1011.77
2017-04-10T04:49:44.110Z,1011.71
2017-04-10T04:50:24.591Z,1011.71
2017-04-10T04:51:05.080Z,1011.71
2017-04-10T04:51:45.558Z,1011.75
2017-04-10T04:52:26.020Z,1011.98
2017-04-10T04:53:06.509Z,1011.74
2017-04-10T04:53:46.989Z,1011.76
2017-04-10T04:54:27.464Z,1011.96
2017-04-10T04:55:07.913Z,1011.73
2017-04-10T04:55:48.399Z,1011.75
2017-04-10T04:56:28.910Z,1011.76
2017-04-10T04:57:09.391Z,1011.71
2017-04-10T04:57:49.911Z,1011.78
2017-04-10T04:58:30.368Z,1011.84
2017-04-10T04:59:10.865Z,1011.86
2017-04-10T04:59:51.380Z,1012.05
2017-04-10T05:00:31.841Z,1011.91
2017-04-10T05:01:12.317Z,1011.9
2017-04-10T05:01:52.813Z,1011.9
2017-04-10T05:02:33.291Z,1012.24
2017-04-10T05:03:13.825Z,1011.84
2017-04-10T05:03:54.256Z,1011.95
2017-04-10T05:04:34.732Z,1012.02
2017-04-10T05:05:15.222Z,1012.04
2017-04-10T05:05:55.706Z,1011.92
2017-04-10T05:06:36.183Z,1012.02
2017-04-10T05:07:16.682Z,1012.05
2017-04-10T05:07:57.154Z,1012.05
2017-04-10T05:08:37.635Z,1011.99
2017-04-10T05:09:18.123Z,1011.99
2017-04-10T05:09:58.638Z,1012.08
2017-04-10T05:10:39.104Z,1012.17
2017-04-10T05:11:19.573Z,1012.05
2017-04-10T05:12:00.034Z,1012.12
2017-04-10T05:12:40.527Z,1012.28
2017-04-10T05:13:21.029Z,1012.13
2017-04-10T05:14:03.138Z,1012.17
2017-04-10T05:14:43.621Z,1012.17
2017-04-10T05:15:24.106Z,1012.03
2017-04-10T05:16:04.582Z,1012.13
2017-04-10T05:16:45.084Z,1012.18
2017-04-10T05:17:25.576Z,1012.55
2017-04-10T05:18:06.098Z,1012.18
2017-04-10T05:18:46.561Z,1012.16
2017-04-10T05:19:27.053Z,1012.15
2017-04-10T05:20:07.516Z,1012.15
2017-04-10T05:20:48.006Z,1012.17
2017-04-10T05:21:28.459Z,1012.3
2017-04-10T05:22:08.994Z,1012.37
2017-04-10T05:22:49.486Z,1012.22
2017-04-10T05:23:29.974Z,1012.28
2017-04-10T05:24:10.438Z,1012.21
2017-04-10T05:24:57.548Z,1012.35
2017-04-10T05:25:38.061Z,1012.38
2017-04-10T05:26:18.542Z,1012.47
2017-04-10T05:26:59.020Z,1012.38
2017-04-10T05:27:39.529Z,1012.48
2017-04-10T05:28:20.016Z,1012.53
2017-04-10T05:29:00.507Z,1012.54
2017-04-10T05:29:40.986Z,1012.38
2017-04-10T05:30:21.500Z,1012.36
2017-04-10T05:31:01.977Z,1012.44
2017-04-10T05:31:42.454Z,1012.38
2017-04-10T05:32:22.950Z,1012.47
2017-04-10T05:33:03.423Z,1012.5
2017-04-10T05:33:43.991Z,1012.48
2017-04-10T05:34:24.458Z,1012.5
2017-04-10T05:35:04.933Z,1012.56
2017-04-10T05:35:45.424Z,1012.45
2017-04-10T05:36:25.911Z,1012.41
2017-04-10T05:37:06.403Z,1012.4
2017-04-10T05:37:46.888Z,1012.49
2017-04-10T05:38:27.378Z,1012.5
2017-04-10T05:39:07.850Z,1012.43
2017-04-10T05:39:48.328Z,1012.46
2017-04-10T05:40:28.900Z,1012.47
2017-04-10T05:41:09.349Z,1012.53
2017-04-10T05:41:49.871Z,1012.65
2017-04-10T05:42:30.360Z,1012.52
2017-04-10T05:43:10.992Z,1012.48
2017-04-10T05:43:51.480Z,1012.47
2017-04-10T05:44:31.998Z,1012.56
2017-04-10T05:45:12.495Z,1012.55
2017-04-10T05:45:52.971Z,1012.65
2017-04-10T05:46:33.456Z,1012.6
2017-04-10T05:47:14.014Z,1012.64
2017-04-10T05:47:54.479Z,1012.56
2017-04-10T05:48:34.994Z,1012.58
2017-04-10T05:49:15.506Z,1012.52
2017-04-10T05:49:55.988Z,1012.6
2017-04-10T05:50:36.461Z,1012.62
2017-04-10T05:51:16.968Z,1012.55
2017-04-10T05:51:57.458Z,1012.63
2017-04-10T05:52:37.955Z,1012.62
2017-04-10T05:53:18.440Z,1012.95
2017-04-10T05:53:58.962Z,1012.65
2017-04-10T05:54:39.460Z,1012.62
2017-04-10T05:55:19.968Z,1012.86
2017-04-10T05:56:00.473Z,1012.71
2017-04-10T05:56:40.963Z,1012.86
2017-04-10T05:57:21.476Z,1012.67
2017-04-10T05:58:01.979Z,1012.68
2017-04-10T05:58:42.448Z,1012.65
2017-04-10T05:59:22.957Z,1012.77
2017-04-10T06:00:03.445Z,1012.75
2017-04-10T06:00:43.958Z,1012.73
2017-04-10T06:01:24.438Z,1012.83
2017-04-10T06:02:04.961Z,1012.82
2017-04-10T06:02:45.460Z,1012.67
2017-04-10T06:03:25.963Z,1012.77
2017-04-10T06:04:06.454Z,1012.75
2017-04-10T06:04:46.964Z,1012.84
2017-04-10T06:05:27.455Z,1012.72
2017-04-10T06:06:07.938Z,1012.76
2017-04-10T06:06:48.446Z,1012.75
2017-04-10T06:07:29.007Z,1012.77
2017-04-10T06:08:09.494Z,1012.76
2017-04-10T06:08:49.987Z,1012.79
2017-04-10T06:09:30.464Z,1012.85
2017-04-10T06:10:10.958Z,1012.83
2017-04-10T06:10:51.461Z,1012.86
2017-04-10T06:11:31.925Z,1012.87
2017-04-10T06:12:12.438Z,1012.88
2017-04-10T06:12:52.908Z,1012.92
2017-04-10T06:13:33.412Z,1012.86
2017-04-10T06:14:13.878Z,1012.87
2017-04-10T06:14:54.368Z,1012.94
2017-04-10T06:15:34.854Z,1012.95
2017-04-10T06:16:15.352Z,1012.9
2017-04-10T06:16:55.836Z,1012.86
2017-04-10T06:17:36.880Z,1013.03
2017-04-10T06:18:17.363Z,1012.9
2017-04-10T06:18:57.843Z,1012.93
2017-04-10T06:19:38.312Z,1013.12
2017-04-10T06:20:18.765Z,1012.95
2017-04-10T06:20:59.303Z,1013.13
2017-04-10T06:21:39.803Z,1013.02
2017-04-10T06:22:20.295Z,1013.02
2017-04-10T06:23:00.789Z,1013.03
2017-04-10T06:23:41.275Z,1012.96
2017-04-10T06:24:21.727Z,1013.09
2017-04-10T06:25:02.241Z,1013.11
2017-04-10T06:25:42.727Z,1013.05
2017-04-10T06:26:23.232Z,1013.04
2017-04-10T06:27:03.717Z,1013.16
2017-04-10T06:27:44.254Z,1013.06
2017-04-10T06:28:24.742Z,1013.04
2017-04-10T06:29:05.258Z,1013.19
2017-04-10T06:29:45.725Z,1013.12
2017-04-10T06:30:26.239Z,1013.13
2017-04-10T06:31:06.725Z,1013.22
2017-04-10T06:31:47.190Z,1013.19
2017-04-10T06:32:27.678Z,1013.16
2017-04-10T06:33:08.174Z,1013.32
2017-04-10T06:33:48.640Z,1013.27
2017-04-10T06:34:29.127Z,1013.44
2017-04-10T06:35:09.585Z,1013.22
2017-04-10T06:35:50.118Z,1013.2
2017-04-10T06:36:30.552Z,1013.26
2017-04-10T06:37:11.109Z,1013.38
2017-04-10T06:37:51.604Z,1013.45
2017-04-10T06:38:32.096Z,1013.24
2017-04-10T06:39:12.580Z,1013.25
2017-04-10T06:39:53.090Z,1013.3
2017-04-10T06:40:33.538Z,1013.48
2017-04-10T06:41:14.059Z,1013.46
2017-04-10T06:41:54.532Z,1013.4
2017-04-10T06:42:35.043Z,1013.33
2017-04-10T06:43:15.543Z,1013.44
2017-04-10T06:43:56.046Z,1013.66
2017-04-10T06:44:36.510Z,1013.41
2017-04-10T06:45:16.994Z,1013.39
2017-04-10T06:45:57.503Z,1013.36
2017-04-10T06:46:37.985Z,1013.45
2017-04-10T06:47:18.489Z,1013.39
2017-04-10T06:47:59.040Z,1013.49
2017-04-10T06:48:39.545Z,1013.39
2017-04-10T06:49:20.047Z,1013.53
2017-04-10T06:50:00.520Z,1013.56
2017-04-10T06:50:41.005Z,1013.52
2017-04-10T06:51:21.532Z,1013.48
2017-04-10T06:52:02.038Z,1013.49
2017-04-10T06:52:42.533Z,1013.74
2017-04-10T06:53:23.038Z,1013.65
2017-04-10T06:54:03.558Z,1013.72
2017-04-10T06:54:44.054Z,1013.7
2017-04-10T06:55:31.708Z,1013.66
2017-04-10T06:56:11.266Z,1013.7
2017-04-10T06:56:51.742Z,1013.71
2017-04-10T06:57:32.243Z,1013.77
2017-04-10T06:58:12.742Z,1013.71
2017-04-10T06:58:53.204Z,1013.69
2017-04-10T06:59:33.691Z,1013.88
2017-04-10T07:00:14.181Z,1013.75
2017-04-10T07:00:54.686Z,1013.8
2017-04-10T07:01:35.193Z,1014.13
2017-04-10T07:02:15.656Z,1013.83
2017-04-10T07:02:56.160Z,1013.85
2017-04-10T07:03:37.346Z,1013.94
2017-04-10T07:04:17.841Z,1013.9
2017-04-10T07:04:58.323Z,1013.9
2017-04-10T07:05:38.877Z,1013.86
2017-04-10T07:06:19.898Z,1013.91
2017-04-10T07:07:00.447Z,1013.98
2017-04-10T07:07:40.920Z,1013.93
2017-04-10T07:08:21.447Z,1013.96
2017-04-10T07:09:01.927Z,1014.04
2017-04-10T07:09:42.423Z,1013.95
2017-04-10T07:10:22.912Z,1013.9
2017-04-10T07:11:03.367Z,1014.07
2017-04-10T07:11:43.884Z,1014.09
2017-04-10T07:12:24.371Z,1013.99
2017-04-10T07:13:04.884Z,1014.08
2017-04-10T07:13:45.374Z,1014.2
2017-04-10T07:14:25.864Z,1014.23
2017-04-10T07:15:06.371Z,1014.09
2017-04-10T07:15:46.839Z,1014.08
2017-04-10T07:16:27.338Z,1014.35
2017-04-10T07:17:07.841Z,1014.26
2017-04-10T07:17:48.318Z,1014.21
2017-04-10T07:18:28.809Z,1014.16
2017-04-10T07:19:09.288Z,1014.18
2017-04-10T07:19:49.987Z,1014.24
2017-04-10T07:20:30.497Z,1014.24
2017-04-10T07:21:10.986Z,1014.32
2017-04-10T07:21:53.714Z,1014.23
2017-04-10T07:22:33.810Z,1014.27
2017-04-10T07:23:17.259Z,1014.22
2017-04-10T07:23:58.048Z,1014.29
2017-04-10T07:24:38.550Z,1014.15
2017-04-10T07:25:19.531Z,1014.28
2017-04-10T07:26:00.339Z,1014.34
2017-04-10T07:26:40.955Z,1014.32
2017-04-10T07:27:21.754Z,1014.24
2017-04-10T07:28:02.525Z,1014.26
2017-04-10T07:28:43.471Z,1014.27
2017-04-10T07:29:24.196Z,1014.33
2017-04-10T07:30:04.907Z,1014.43
2017-04-10T07:30:45.570Z,1014.31
2017-04-10T07:31:26.128Z,1014.38
2017-04-10T07:32:06.614Z,1014.33
2017-04-10T07:32:47.169Z,1014.4
2017-04-10T07:33:27.641Z,1014.41
2017-04-10T07:35:25.928Z,1014.46
2017-04-10T07:36:06.457Z,1014.48
2017-04-10T07:36:47.091Z,1014.41
2017-04-10T07:37:27.676Z,1014.42
2017-04-10T07:38:08.178Z,1014.65
2017-04-10T07:38:48.687Z,1014.52
2017-04-10T07:39:29.222Z,1014.48
2017-04-10T07:40:09.718Z,1014.49
2017-04-10T07:40:50.201Z,1014.47
2017-04-10T07:41:30.694Z,1014.43
2017-04-10T07:42:11.154Z,1014.39
2017-04-10T07:42:51.646Z,1014.48
2017-04-10T07:43:32.150Z,1014.62
2017-04-10T07:44:12.966Z,1014.45
2017-04-10T07:44:53.468Z,1014.53
2017-04-10T07:45:33.936Z,1014.64
2017-04-10T07:46:14.427Z,1014.7
2017-04-10T07:46:54.945Z,1014.65
2017-04-10T07:47:35.893Z,1014.56
2017-04-10T07:48:16.365Z,1014.67
2017-04-10T07:48:56.870Z,1014.7
2017-04-10T07:49:37.351Z,1014.69
2017-04-10T07:50:17.841Z,1014.67
2017-04-10T07:50:58.296Z,1014.66
2017-04-10T07:51:38.802Z,1014.77
2017-04-10T07:52:19.302Z,1014.68
2017-04-10T07:52:59.781Z,1014.68
2017-04-10T07:53:40.241Z,1014.93
2017-04-10T07:54:20.988Z,1014.88
2017-04-10T07:55:01.404Z,1014.72
2017-04-10T07:55:41.895Z,1014.68
2017-04-10T07:56:22.372Z,1014.82
2017-04-10T07:57:02.914Z,1014.84
2017-04-10T07:57:43.427Z,1014.8
2017-04-10T07:58:23.924Z,1014.79
2017-04-10T07:59:04.415Z,1014.88
2017-04-10T07:59:44.893Z,1014.93
2017-04-10T08:00:25.377Z,1014.87
2017-04-10T08:01:05.926Z,1014.92
2017-04-10T08:01:46.400Z,1014.88
2017-04-10T08:02:26.900Z,1014.99
2017-04-10T08:03:07.415Z,1014.97
2017-04-10T08:03:47.892Z,1014.89
2017-04-10T08:04:28.389Z,1014.96
2017-04-10T08:05:11.458Z,1014.95
2017-04-10T08:05:51.958Z,1015.02
2017-04-10T08:06:32.545Z,1015.02
2017-04-10T08:07:12.999Z,1014.96
2017-04-10T08:07:53.481Z,1015.03
2017-04-10T08:08:34.002Z,1014.99
2017-04-10T08:09:14.520Z,1014.99
2017-04-10T08:09:55.016Z,1015.08
2017-04-10T08:10:35.625Z,1015.14
2017-04-10T08:11:16.120Z,1015.25
2017-04-10T08:11:57.237Z,1015.12
2017-04-10T08:12:37.734Z,1015.23
2017-04-10T08:13:18.226Z,1015.19
2017-04-10T08:13:58.730Z,1015.06